sensor_id;sensor_type;location;lat;lon;timestamp;pressure;altitude;pressure_sealevel;temperature;humidity
35443;BME280;21561;55.654;37.592;2023-12-20T00:02:17;97538.06;;;2.84;100.00
35443;BME280;21561;55.654;37.592;2023-12-20T00:04:44;97549.16;;;2.83;100.00
35443;BME280;21561;55.654;37.592;2023-12-20T00:07:11;97538.97;;;2.80;100.00
35443;BME280;21561;55.654;37.592;2023-12-20T00:09:39;97546.66;;;2.80;100.00
35443;BME280;21561;55.654;37.592;2023-12-20T00:12:06;97529.56;;;2.79;100.00
35443;BME280;21561;55.654;37.592;2023-12-20T00:14:33;97538.09;;;2.81;100.00
35443;BME280;21561;55.654;37.592;2023-12-20T00:17:00;97551.72;;;2.83;100.00
35443;BME280;21561;55.654;37.592;2023-12-20T00:19:27;97574.78;;;2.85;100.00
35443;BME280;21561;55.654;37.592;2023-12-20T00:21:56;97559.38;;;2.88;100.00
35443;BME280;21561;55.654;37.592;2023-12-20T00:24:23;97549.13;;;2.88;100.00
35443;BME280;21561;55.654;37.592;2023-12-20T00:26:50;97544.00;;;2.88;100.00
35443;BME280;21561;55.654;37.592;2023-12-20T00:29:17;97546.56;;;2.90;100.00
35443;BME280;21561;55.654;37.592;2023-12-20T00:31:44;97559.38;;;2.86;100.00
35443;BME280;21561;55.654;37.592;2023-12-20T00:34:11;97556.81;;;2.90;100.00
35443;BME280;21561;55.654;37.592;2023-12-20T00:36:38;97552.53;;;2.90;100.00
35443;BME280;21561;55.654;37.592;2023-12-20T00:39:05;97551.66;;;2.93;100.00
35443;BME280;21561;55.654;37.592;2023-12-20T00:41:33;97561.03;;;2.92;100.00
35443;BME280;21561;55.654;37.592;2023-12-20T00:44:00;97555.06;;;2.95;100.00
35443;BME280;21561;55.654;37.592;2023-12-20T00:46:27;97563.56;;;2.97;100.00
35443;BME280;21561;55.654;37.592;2023-12-20T00:48:54;97571.25;;;2.98;100.00
35443;BME280;21561;55.654;37.592;2023-12-20T00:51:21;97549.03;;;2.99;100.00
35443;BME280;21561;55.654;37.592;2023-12-20T00:53:49;97560.13;;;2.98;100.00
35443;BME280;21561;55.654;37.592;2023-12-20T00:56:16;97564.41;;;2.96;100.00
35443;BME280;21561;55.654;37.592;2023-12-20T00:58:43;97558.44;;;2.98;100.00
35443;BME280;21561;55.654;37.592;2023-12-20T01:01:10;97545.63;;;2.98;100.00
35443;BME280;21561;55.654;37.592;2023-12-20T01:03:38;97553.31;;;2.97;100.00
35443;BME280;21561;55.654;37.592;2023-12-20T01:06:05;97557.63;;;2.93;100.00
35443;BME280;21561;55.654;37.592;2023-12-20T01:08:33;97546.53;;;2.93;100.00
35443;BME280;21561;55.654;37.592;2023-12-20T01:11:04;97560.19;;;2.93;100.00
35443;BME280;21561;55.654;37.592;2023-12-20T01:13:31;97538.03;;;2.88;100.00
35443;BME280;21561;55.654;37.592;2023-12-20T01:15:58;97547.47;;;2.85;100.00
35443;BME280;21561;55.654;37.592;2023-12-20T01:18:25;97516.72;;;2.85;100.00
35443;BME280;21561;55.654;37.592;2023-12-20T01:20:53;97526.97;;;2.84;100.00
35443;BME280;21561;55.654;37.592;2023-12-20T01:23:21;97526.97;;;2.84;100.00
35443;BME280;21561;55.654;37.592;2023-12-20T01:25:48;97516.75;;;2.82;100.00
35443;BME280;21561;55.654;37.592;2023-12-20T01:28:15;97527.81;;;2.84;100.00
35443;BME280;21561;55.654;37.592;2023-12-20T01:30:42;97535.53;;;2.81;100.00
35443;BME280;21561;55.654;37.592;2023-12-20T01:33:09;97541.53;;;2.80;100.00
35443;BME280;21561;55.654;37.592;2023-12-20T01:35:36;97529.59;;;2.78;100.00
35443;BME280;21561;55.654;37.592;2023-12-20T01:38:04;97539.91;;;2.73;100.00
35443;BME280;21561;55.654;37.592;2023-12-20T01:40:30;97531.34;;;2.74;100.00
35443;BME280;21561;55.654;37.592;2023-12-20T01:43:01;97524.56;;;2.70;100.00
35443;BME280;21561;55.654;37.592;2023-12-20T01:45:28;97534.81;;;2.67;100.00
35443;BME280;21561;55.654;37.592;2023-12-20T01:47:57;97522.00;;;2.67;100.00
35443;BME280;21561;55.654;37.592;2023-12-20T01:50:25;97513.53;;;2.62;100.00
35443;BME280;21561;55.654;37.592;2023-12-20T01:52:54;97498.16;;;2.62;100.00
35443;BME280;21561;55.654;37.592;2023-12-20T01:55:25;97507.56;;;2.60;100.00
35443;BME280;21561;55.654;37.592;2023-12-20T01:57:52;97493.09;;;2.59;100.00
35443;BME280;21561;55.654;37.592;2023-12-20T02:00:20;97509.31;;;2.55;100.00
35443;BME280;21561;55.654;37.592;2023-12-20T02:02:50;97520.44;;;2.52;100.00
35443;BME280;21561;55.654;37.592;2023-12-20T02:05:20;97500.84;;;2.50;100.00
35443;BME280;21561;55.654;37.592;2023-12-20T02:07:48;97505.13;;;2.47;100.00
35443;BME280;21561;55.654;37.592;2023-12-20T02:10:15;97515.34;;;2.47;100.00
35443;BME280;21561;55.654;37.592;2023-12-20T02:12:44;97506.00;;;2.46;100.00
35443;BME280;21561;55.654;37.592;2023-12-20T02:15:12;97499.16;;;2.45;100.00
35443;BME280;21561;55.654;37.592;2023-12-20T02:17:39;97489.81;;;2.41;100.00
35443;BME280;21561;55.654;37.592;2023-12-20T02:20:07;97500.06;;;2.41;100.00
35443;BME280;21561;55.654;37.592;2023-12-20T02:22:34;97490.69;;;2.40;100.00
35443;BME280;21561;55.654;37.592;2023-12-20T02:25:02;97480.44;;;2.40;100.00
35443;BME280;21561;55.654;37.592;2023-12-20T02:27:30;97485.56;;;2.40;100.00
35443;BME280;21561;55.654;37.592;2023-12-20T02:29:58;97494.13;;;2.39;100.00
35443;BME280;21561;55.654;37.592;2023-12-20T02:32:25;97484.72;;;2.38;100.00
35443;BME280;21561;55.654;37.592;2023-12-20T02:34:55;97482.16;;;2.38;100.00
35443;BME280;21561;55.654;37.592;2023-12-20T02:37:23;97482.25;;;2.32;100.00
35443;BME280;21561;55.654;37.592;2023-12-20T02:39:51;97478.84;;;2.30;100.00
35443;BME280;21561;55.654;37.592;2023-12-20T02:42:18;97482.25;;;2.27;100.00
35443;BME280;21561;55.654;37.592;2023-12-20T02:44:45;97488.28;;;2.22;100.00
35443;BME280;21561;55.654;37.592;2023-12-20T02:47:11;97497.69;;;2.21;100.00
35443;BME280;21561;55.654;37.592;2023-12-20T02:49:38;97495.13;;;2.21;100.00
35443;BME280;21561;55.654;37.592;2023-12-20T02:52:05;97499.34;;;2.24;100.00
35443;BME280;21561;55.654;37.592;2023-12-20T02:54:33;97490.00;;;2.24;100.00
35443;BME280;21561;55.654;37.592;2023-12-20T02:56:59;97495.94;;;2.25;100.00
35443;BME280;21561;55.654;37.592;2023-12-20T02:59:26;97496.78;;;2.27;100.00
35443;BME280;21561;55.654;37.592;2023-12-20T03:01:53;97490.81;;;2.28;100.00
35443;BME280;21561;55.654;37.592;2023-12-20T03:04:20;97490.81;;;2.28;100.00
35443;BME280;21561;55.654;37.592;2023-12-20T03:06:47;97490.81;;;2.28;100.00
35443;BME280;21561;55.654;37.592;2023-12-20T03:09:14;97477.13;;;2.29;100.00
35443;BME280;21561;55.654;37.592;2023-12-20T03:11:41;97480.53;;;2.31;100.00
35443;BME280;21561;55.654;37.592;2023-12-20T03:14:08;97490.75;;;2.34;100.00
35443;BME280;21561;55.654;37.592;2023-12-20T03:16:35;97487.34;;;2.32;100.00
35443;BME280;21561;55.654;37.592;2023-12-20T03:19:03;97489.91;;;2.32;100.00
35443;BME280;21561;55.654;37.592;2023-12-20T03:21:30;97494.19;;;2.30;100.00
35443;BME280;21561;55.654;37.592;2023-12-20T03:23:57;97498.50;;;2.28;100.00
35443;BME280;21561;55.654;37.592;2023-12-20T03:26:24;97491.69;;;2.24;100.00
35443;BME280;21561;55.654;37.592;2023-12-20T03:28:51;97490.84;;;2.22;100.00
35443;BME280;21561;55.654;37.592;2023-12-20T03:31:18;97485.72;;;2.22;100.00
35443;BME280;21561;55.654;37.592;2023-12-20T03:33:46;97491.69;;;2.22;100.00
35443;BME280;21561;55.654;37.592;2023-12-20T03:36:13;97491.69;;;2.22;100.00
35443;BME280;21561;55.654;37.592;2023-12-20T03:38:40;97488.25;;;2.26;100.00
35443;BME280;21561;55.654;37.592;2023-12-20T03:41:07;97488.25;;;2.26;100.00
35443;BME280;21561;55.654;37.592;2023-12-20T03:43:34;97490.81;;;2.28;100.00
35443;BME280;21561;55.654;37.592;2023-12-20T03:46:02;97472.00;;;2.34;100.00
35443;BME280;21561;55.654;37.592;2023-12-20T03:48:31;97483.06;;;2.36;100.00
35443;BME280;21561;55.654;37.592;2023-12-20T03:50:58;97490.69;;;2.40;100.00
35443;BME280;21561;55.654;37.592;2023-12-20T03:53:25;97483.88;;;2.42;100.00
35443;BME280;21561;55.654;37.592;2023-12-20T03:55:52;97487.19;;;2.47;100.00
35443;BME280;21561;55.654;37.592;2023-12-20T03:58:19;97493.13;;;2.53;100.00
35443;BME280;21561;55.654;37.592;2023-12-20T04:00:46;97495.66;;;2.56;100.00
35443;BME280;21561;55.654;37.592;2023-12-20T04:03:14;97500.78;;;2.59;100.00
35443;BME280;21561;55.654;37.592;2023-12-20T04:05:41;97488.78;;;2.61;100.00
35443;BME280;21561;55.654;37.592;2023-12-20T04:08:09;97506.69;;;2.64;100.00
35443;BME280;21561;55.654;37.592;2023-12-20T04:10:36;97496.47;;;2.62;100.00
35443;BME280;21561;55.654;37.592;2023-12-20T04:13:04;97512.66;;;2.63;100.00
35443;BME280;21561;55.654;37.592;2023-12-20T04:15:31;97498.16;;;2.62;100.00
35443;BME280;21561;55.654;37.592;2023-12-20T04:17:58;97506.72;;;2.61;100.00
35443;BME280;21561;55.654;37.592;2023-12-20T04:20:26;97505.84;;;2.62;100.00
35443;BME280;21561;55.654;37.592;2023-12-20T04:22:53;97491.34;;;2.61;100.00
35443;BME280;21561;55.654;37.592;2023-12-20T04:25:20;97493.91;;;2.61;100.00
35443;BME280;21561;55.654;37.592;2023-12-20T04:27:47;97494.75;;;2.61;100.00
35443;BME280;21561;55.654;37.592;2023-12-20T04:30:15;97498.16;;;2.62;100.00
35443;BME280;21561;55.654;37.592;2023-12-20T04:32:42;97508.38;;;2.65;100.00
35443;BME280;21561;55.654;37.592;2023-12-20T04:35:09;97512.66;;;2.66;100.00
35443;BME280;21561;55.654;37.592;2023-12-20T04:37:36;97517.78;;;2.66;100.00
35443;BME280;21561;55.654;37.592;2023-12-20T04:40:03;97522.00;;;2.67;100.00
35443;BME280;21561;55.654;37.592;2023-12-20T04:42:32;97533.97;;;2.65;100.00
35443;BME280;21561;55.654;37.592;2023-12-20T04:44:59;97520.34;;;2.66;100.00
35443;BME280;21561;55.654;37.592;2023-12-20T04:47:26;97522.88;;;2.66;100.00
35443;BME280;21561;55.654;37.592;2023-12-20T04:49:53;97526.28;;;2.68;100.00
35443;BME280;21561;55.654;37.592;2023-12-20T04:52:20;97527.09;;;2.70;100.00
35443;BME280;21561;55.654;37.592;2023-12-20T04:54:47;97511.84;;;2.61;100.00
35443;BME280;21561;55.654;37.592;2023-12-20T04:57:14;97523.00;;;2.52;100.00
35443;BME280;21561;55.654;37.592;2023-12-20T04:59:44;97534.16;;;2.46;100.00
35443;BME280;21561;55.654;37.592;2023-12-20T05:02:19;97521.38;;;2.40;100.00
35443;BME280;21561;55.654;37.592;2023-12-20T05:04:46;97516.31;;;2.37;100.00
35443;BME280;21561;55.654;37.592;2023-12-20T05:07:13;97523.16;;;2.35;100.00
35443;BME280;21561;55.654;37.592;2023-12-20T05:09:40;97519.75;;;2.33;100.00
35443;BME280;21561;55.654;37.592;2023-12-20T05:12:08;97519.75;;;2.33;100.00
35443;BME280;21561;55.654;37.592;2023-12-20T05:14:35;97524.03;;;2.31;100.00
35443;BME280;21561;55.654;37.592;2023-12-20T05:17:02;97524.03;;;2.31;100.00
35443;BME280;21561;55.654;37.592;2023-12-20T05:19:29;97526.59;;;2.31;100.00
35443;BME280;21561;55.654;37.592;2023-12-20T05:21:57;97518.06;;;2.32;100.00
35443;BME280;21561;55.654;37.592;2023-12-20T05:24:24;97527.47;;;2.32;100.00
35443;BME280;21561;55.654;37.592;2023-12-20T05:26:51;97535.09;;;2.33;100.00
35443;BME280;21561;55.654;37.592;2023-12-20T05:29:20;97532.53;;;2.35;100.00
35443;BME280;21561;55.654;37.592;2023-12-20T05:31:47;97535.09;;;2.33;100.00
35443;BME280;21561;55.654;37.592;2023-12-20T05:34:14;97542.78;;;2.35;100.00
35443;BME280;21561;55.654;37.592;2023-12-20T05:36:41;97531.69;;;2.37;100.00
35443;BME280;21561;55.654;37.592;2023-12-20T05:39:08;97531.63;;;2.40;100.00
35443;BME280;21561;55.654;37.592;2023-12-20T05:41:34;97535.91;;;2.41;100.00
35443;BME280;21561;55.654;37.592;2023-12-20T05:44:01;97538.47;;;2.41;100.00
35443;BME280;21561;55.654;37.592;2023-12-20T05:46:28;97532.50;;;2.42;100.00
35443;BME280;21561;55.654;37.592;2023-12-20T05:48:55;97537.63;;;2.41;100.00
35443;BME280;21561;55.654;37.592;2023-12-20T05:51:23;97546.16;;;2.41;100.00
35443;BME280;21561;55.654;37.592;2023-12-20T05:53:50;97535.91;;;2.43;100.00
35443;BME280;21561;55.654;37.592;2023-12-20T05:56:17;97537.63;;;2.39;100.00
35443;BME280;21561;55.654;37.592;2023-12-20T05:58:44;97538.47;;;2.38;100.00
35443;BME280;21561;55.654;37.592;2023-12-20T06:01:11;97553.00;;;2.38;100.00
35443;BME280;21561;55.654;37.592;2023-12-20T06:03:41;97540.22;;;2.36;100.00
35443;BME280;21561;55.654;37.592;2023-12-20T06:06:09;97546.22;;;2.35;100.00
35443;BME280;21561;55.654;37.592;2023-12-20T06:08:43;97553.00;;;2.38;100.00
35443;BME280;21561;55.654;37.592;2023-12-20T06:11:10;97554.66;;;2.40;100.00
35443;BME280;21561;55.654;37.592;2023-12-20T06:13:37;97558.09;;;2.42;100.00
35443;BME280;21561;55.654;37.592;2023-12-20T06:16:05;97554.66;;;2.42;100.00
35443;BME280;21561;55.654;37.592;2023-12-20T06:18:34;97564.06;;;2.41;100.00
35443;BME280;21561;55.654;37.592;2023-12-20T06:21:01;97560.66;;;2.42;100.00
35443;BME280;21561;55.654;37.592;2023-12-20T06:23:29;97565.72;;;2.44;100.00
35443;BME280;21561;55.654;37.592;2023-12-20T06:25:56;97566.59;;;2.46;100.00
35443;BME280;21561;55.654;37.592;2023-12-20T06:28:23;97567.44;;;2.46;100.00
35443;BME280;21561;55.654;37.592;2023-12-20T06:30:50;97565.72;;;2.45;100.00
35443;BME280;21561;55.654;37.592;2023-12-20T06:33:19;97560.59;;;2.45;100.00
35443;BME280;21561;55.654;37.592;2023-12-20T06:35:48;97561.47;;;2.46;100.00
35443;BME280;21561;55.654;37.592;2023-12-20T06:38:17;97566.53;;;2.52;100.00
35443;BME280;21561;55.654;37.592;2023-12-20T06:40:44;97549.47;;;2.51;100.00
35443;BME280;21561;55.654;37.592;2023-12-20T06:43:12;97573.38;;;2.50;100.00
35443;BME280;21561;55.654;37.592;2023-12-20T06:45:58;97550.28;;;2.55;100.00
35443;BME280;21561;55.654;37.592;2023-12-20T06:48:25;97562.25;;;2.56;100.00
35443;BME280;21561;55.654;37.592;2023-12-20T06:50:52;97560.50;;;2.58;100.00
35443;BME280;21561;55.654;37.592;2023-12-20T06:53:19;97557.94;;;2.61;100.00
35443;BME280;21561;55.654;37.592;2023-12-20T06:55:46;97560.47;;;2.64;100.00
35443;BME280;21561;55.654;37.592;2023-12-20T06:58:13;97558.75;;;2.66;100.00
35443;BME280;21561;55.654;37.592;2023-12-20T07:00:40;97557.88;;;2.67;100.00
35443;BME280;21561;55.654;37.592;2023-12-20T07:03:08;97562.16;;;2.65;100.00
35443;BME280;21561;55.654;37.592;2023-12-20T07:05:35;97553.63;;;2.67;100.00
35443;BME280;21561;55.654;37.592;2023-12-20T07:08:02;97550.16;;;2.70;100.00
35443;BME280;21561;55.654;37.592;2023-12-20T07:10:29;97556.16;;;2.67;100.00
35443;BME280;21561;55.654;37.592;2023-12-20T07:12:56;97563.81;;;2.69;100.00
35443;BME280;21561;55.654;37.592;2023-12-20T07:15:24;97569.81;;;2.68;100.00
35443;BME280;21561;55.654;37.592;2023-12-20T07:17:51;97576.66;;;2.67;100.00
35443;BME280;21561;55.654;37.592;2023-12-20T07:20:18;97565.53;;;2.67;100.00
35443;BME280;21561;55.654;37.592;2023-12-20T07:22:45;97566.41;;;2.67;100.00
35443;BME280;21561;55.654;37.592;2023-12-20T07:25:12;97582.63;;;2.66;100.00
35443;BME280;21561;55.654;37.592;2023-12-20T07:27:39;97588.59;;;2.68;100.00
35443;BME280;21561;55.654;37.592;2023-12-20T07:30:11;97575.78;;;2.70;100.00
35443;BME280;21561;55.654;37.592;2023-12-20T07:32:38;97586.00;;;2.70;100.00
35443;BME280;21561;55.654;37.592;2023-12-20T07:35:05;97578.31;;;2.72;100.00
35443;BME280;21561;55.654;37.592;2023-12-20T07:37:32;97589.41;;;2.72;100.00
35443;BME280;21561;55.654;37.592;2023-12-20T07:39:59;97583.44;;;2.70;100.00
35443;BME280;21561;55.654;37.592;2023-12-20T07:42:26;97586.84;;;2.71;100.00
35443;BME280;21561;55.654;37.592;2023-12-20T07:44:53;97587.69;;;2.73;100.00
35443;BME280;21561;55.654;37.592;2023-12-20T07:47:20;97586.84;;;2.74;100.00
35443;BME280;21561;55.654;37.592;2023-12-20T07:49:48;97592.78;;;2.74;100.00
35443;BME280;21561;55.654;37.592;2023-12-20T07:52:16;97591.13;;;2.73;100.00
35443;BME280;21561;55.654;37.592;2023-12-20T07:54:43;97591.06;;;2.76;100.00
35443;BME280;21561;55.654;37.592;2023-12-20T07:57:10;97589.38;;;2.75;100.00
35443;BME280;21561;55.654;37.592;2023-12-20T07:59:39;97599.63;;;2.78;100.00
35443;BME280;21561;55.654;37.592;2023-12-20T08:02:07;97597.06;;;2.77;100.00
35443;BME280;21561;55.654;37.592;2023-12-20T08:04:34;97598.75;;;2.78;100.00
35443;BME280;21561;55.654;37.592;2023-12-20T08:07:01;97596.16;;;2.79;100.00
35443;BME280;21561;55.654;37.592;2023-12-20T08:09:28;97599.63;;;2.78;100.00
35443;BME280;21561;55.654;37.592;2023-12-20T08:11:55;97612.38;;;2.80;100.00
35443;BME280;21561;55.654;37.592;2023-12-20T08:14:22;97596.16;;;2.79;100.00
35443;BME280;21561;55.654;37.592;2023-12-20T08:16:48;97595.31;;;2.82;100.00
35443;BME280;21561;55.654;37.592;2023-12-20T08:19:15;97595.25;;;2.85;100.00
35443;BME280;21561;55.654;37.592;2023-12-20T08:21:42;97598.66;;;2.89;100.00
35443;BME280;21561;55.654;37.592;2023-12-20T08:24:09;97590.94;;;2.92;100.00
35443;BME280;21561;55.654;37.592;2023-12-20T08:26:36;97584.97;;;2.93;100.00
35443;BME280;21561;55.654;37.592;2023-12-20T08:29:03;97588.38;;;2.93;100.00
35443;BME280;21561;55.654;37.592;2023-12-20T08:31:30;97589.19;;;2.95;100.00
35443;BME280;21561;55.654;37.592;2023-12-20T08:33:57;97597.78;;;2.93;100.00
35443;BME280;21561;55.654;37.592;2023-12-20T08:36:24;97601.19;;;2.92;100.00
35443;BME280;21561;55.654;37.592;2023-12-20T08:38:51;97594.34;;;2.91;100.00
35443;BME280;21561;55.654;37.592;2023-12-20T08:41:18;97596.06;;;2.92;100.00
35443;BME280;21561;55.654;37.592;2023-12-20T08:43:46;97587.53;;;2.93;100.00
35443;BME280;21561;55.654;37.592;2023-12-20T08:46:14;97583.25;;;2.93;100.00
35443;BME280;21561;55.654;37.592;2023-12-20T08:48:41;97578.09;;;2.95;100.00
35443;BME280;21561;55.654;37.592;2023-12-20T08:51:10;97582.34;;;2.99;100.00
35443;BME280;21561;55.654;37.592;2023-12-20T08:53:37;97580.63;;;2.98;100.00
35443;BME280;21561;55.654;37.592;2023-12-20T08:56:04;97583.16;;;2.99;100.00
35443;BME280;21561;55.654;37.592;2023-12-20T08:58:31;97578.94;;;2.97;100.00
35443;BME280;21561;55.654;37.592;2023-12-20T09:00:58;97576.38;;;2.97;100.00
35443;BME280;21561;55.654;37.592;2023-12-20T09:03:25;97573.78;;;3.00;100.00
35443;BME280;21561;55.654;37.592;2023-12-20T09:05:52;97577.19;;;3.02;100.00
35443;BME280;21561;55.654;37.592;2023-12-20T09:08:19;97578.06;;;2.98;100.00
35443;BME280;21561;55.654;37.592;2023-12-20T09:10:46;97588.34;;;2.96;100.00
35443;BME280;21561;55.654;37.592;2023-12-20T09:13:13;97587.53;;;2.93;100.00
35443;BME280;21561;55.654;37.592;2023-12-20T09:15:40;97578.13;;;2.93;100.00
35443;BME280;21561;55.654;37.592;2023-12-20T09:18:07;97580.66;;;2.95;100.00
35443;BME280;21561;55.654;37.592;2023-12-20T09:20:34;97576.41;;;2.91;100.00
35443;BME280;21561;55.654;37.592;2023-12-20T09:23:02;97577.28;;;2.93;100.00
35443;BME280;21561;55.654;37.592;2023-12-20T09:25:29;97568.72;;;2.91;100.00
35443;BME280;21561;55.654;37.592;2023-12-20T09:27:57;97573.84;;;2.91;100.00
35443;BME280;21561;55.654;37.592;2023-12-20T09:30:24;97583.25;;;2.90;100.00
35443;BME280;21561;55.654;37.592;2023-12-20T09:32:54;97568.72;;;2.91;100.00
35443;BME280;21561;55.654;37.592;2023-12-20T09:35:22;97562.78;;;2.90;100.00
35443;BME280;21561;55.654;37.592;2023-12-20T09:37:49;97570.44;;;2.92;100.00
35443;BME280;21561;55.654;37.592;2023-12-20T09:40:18;97574.72;;;2.93;100.00
35443;BME280;21561;55.654;37.592;2023-12-20T09:42:57;97559.28;;;2.96;100.00
35443;BME280;21561;55.654;37.592;2023-12-20T09:45:24;97562.72;;;2.96;100.00
35443;BME280;21561;55.654;37.592;2023-12-20T09:47:55;97549.03;;;2.99;100.00
35443;BME280;21561;55.654;37.592;2023-12-20T09:50:22;97549.88;;;2.98;100.00
35443;BME280;21561;55.654;37.592;2023-12-20T09:52:52;97549.88;;;2.98;100.00
35443;BME280;21561;55.654;37.592;2023-12-20T09:55:20;97575.50;;;2.98;100.00
35443;BME280;21561;55.654;37.592;2023-12-20T09:57:48;97552.47;;;2.96;100.00
35443;BME280;21561;55.654;37.592;2023-12-20T10:00:16;97548.19;;;2.97;100.00
35443;BME280;21561;55.654;37.592;2023-12-20T10:02:57;97566.94;;;3.02;100.00
35443;BME280;21561;55.654;37.592;2023-12-20T10:05:29;97565.22;;;3.01;100.00
35443;BME280;21561;55.654;37.592;2023-12-20T10:07:57;97575.47;;;3.01;100.00
35443;BME280;21561;55.654;37.592;2023-12-20T10:10:25;97572.91;;;2.99;100.00
35443;BME280;21561;55.654;37.592;2023-12-20T10:13:09;97566.94;;;3.02;100.00
35443;BME280;21561;55.654;37.592;2023-12-20T10:15:37;97575.50;;;2.98;100.00
35443;BME280;21561;55.654;37.592;2023-12-20T10:18:05;97565.22;;;3.01;100.00
35443;BME280;21561;55.654;37.592;2023-12-20T10:20:33;97579.75;;;3.00;100.00
35443;BME280;21561;55.654;37.592;2023-12-20T10:23:00;97576.31;;;3.01;100.00
35443;BME280;21561;55.654;37.592;2023-12-20T10:25:28;97573.75;;;3.03;100.00
35443;BME280;21561;55.654;37.592;2023-12-20T10:28:10;97584.03;;;3.00;100.00
35443;BME280;21561;55.654;37.592;2023-12-20T10:30:39;97587.44;;;2.99;100.00
35443;BME280;21561;55.654;37.592;2023-12-20T10:33:07;97588.34;;;2.95;100.00
35443;BME280;21561;55.654;37.592;2023-12-20T10:35:35;97588.34;;;2.96;100.00
35443;BME280;21561;55.654;37.592;2023-12-20T10:38:04;97581.50;;;2.95;100.00
35443;BME280;21561;55.654;37.592;2023-12-20T10:40:36;97572.09;;;2.99;100.00
35443;BME280;21561;55.654;37.592;2023-12-20T10:43:04;97570.34;;;3.01;100.00
35443;BME280;21561;55.654;37.592;2023-12-20T10:45:32;97584.91;;;2.97;100.00
35443;BME280;21561;55.654;37.592;2023-12-20T10:48:01;97586.59;;;3.00;100.00
35443;BME280;21561;55.654;37.592;2023-12-20T10:50:29;97580.63;;;2.98;100.00
35443;BME280;21561;55.654;37.592;2023-12-20T10:52:58;97573.81;;;2.98;100.00
35443;BME280;21561;55.654;37.592;2023-12-20T10:55:25;97580.63;;;2.98;100.00
35443;BME280;21561;55.654;37.592;2023-12-20T10:58:05;97581.47;;;3.00;100.00
35443;BME280;21561;55.654;37.592;2023-12-20T11:00:39;97584.88;;;3.00;100.00
35443;BME280;21561;55.654;37.592;2023-12-20T11:03:09;97605.41;;;2.96;100.00
35443;BME280;21561;55.654;37.592;2023-12-20T11:05:59;97589.19;;;2.98;100.00
35443;BME280;21561;55.654;37.592;2023-12-20T11:14:45;97590.88;;;2.98;100.00
35443;BME280;21561;55.654;37.592;2023-12-20T11:17:13;97600.28;;;2.96;100.00
35443;BME280;21561;55.654;37.592;2023-12-20T11:22:27;97605.38;;;2.99;100.00
35443;BME280;21561;55.654;37.592;2023-12-20T11:24:58;97597.69;;;3.02;100.00
35443;BME280;21561;55.654;37.592;2023-12-20T11:27:25;97598.53;;;3.01;100.00
35443;BME280;21561;55.654;37.592;2023-12-20T11:29:54;97587.44;;;3.00;100.00
35443;BME280;21561;55.654;37.592;2023-12-20T11:35:20;97600.25;;;3.00;100.00
35443;BME280;21561;55.654;37.592;2023-12-20T11:37:47;97590.91;;;2.95;100.00
35443;BME280;21561;55.654;37.592;2023-12-20T11:40:16;97593.47;;;2.96;100.00
35443;BME280;21561;55.654;37.592;2023-12-20T11:42:48;97595.16;;;2.96;100.00
35443;BME280;21561;55.654;37.592;2023-12-20T11:45:19;97587.47;;;2.96;100.00
35443;BME280;21561;55.654;37.592;2023-12-20T11:47:49;97583.25;;;2.92;100.00
35443;BME280;21561;55.654;37.592;2023-12-20T11:50:18;97579.84;;;2.91;100.00
35443;BME280;21561;55.654;37.592;2023-12-20T11:52:46;97591.84;;;2.89;100.00
35443;BME280;21561;55.654;37.592;2023-12-20T11:55:14;97581.59;;;2.89;100.00
35443;BME280;21561;55.654;37.592;2023-12-20T11:57:42;97589.28;;;2.88;100.00
35443;BME280;21561;55.654;37.592;2023-12-20T12:00:10;97591.00;;;2.85;100.00
35443;BME280;21561;55.654;37.592;2023-12-20T12:02:38;97594.44;;;2.81;100.00
35443;BME280;21561;55.654;37.592;2023-12-20T12:05:05;97593.59;;;2.84;100.00
35443;BME280;21561;55.654;37.592;2023-12-20T12:07:34;97591.00;;;2.85;100.00
35443;BME280;21561;55.654;37.592;2023-12-20T12:10:02;97601.25;;;2.85;100.00
35443;BME280;21561;55.654;37.592;2023-12-20T12:12:30;97604.69;;;2.81;100.00
35443;BME280;21561;55.654;37.592;2023-12-20T12:14:59;97608.09;;;2.83;100.00
35443;BME280;21561;55.654;37.592;2023-12-20T12:17:26;97597.06;;;2.78;100.00
35443;BME280;21561;55.654;37.592;2023-12-20T12:20:02;97607.25;;;2.83;100.00
35443;BME280;21561;55.654;37.592;2023-12-20T12:22:31;97592.75;;;2.80;100.00
35443;BME280;21561;55.654;37.592;2023-12-20T12:25:09;97594.44;;;2.81;100.00
35443;BME280;21561;55.654;37.592;2023-12-20T12:27:37;97603.03;;;2.77;100.00
35443;BME280;21561;55.654;37.592;2023-12-20T12:30:05;97618.41;;;2.77;100.00
35443;BME280;21561;55.654;37.592;2023-12-20T12:32:36;97610.72;;;2.74;100.00
35443;BME280;21561;55.654;37.592;2023-12-20T12:35:04;97612.50;;;2.67;100.00
35443;BME280;21561;55.654;37.592;2023-12-20T12:37:38;97606.50;;;2.70;100.00
35443;BME280;21561;55.654;37.592;2023-12-20T12:40:14;97599.72;;;2.66;100.00
35443;BME280;21561;55.654;37.592;2023-12-20T12:42:42;97602.25;;;2.67;100.00
35443;BME280;21561;55.654;37.592;2023-12-20T12:45:10;97613.38;;;2.65;100.00
35443;BME280;21561;55.654;37.592;2023-12-20T12:47:41;97605.69;;;2.65;100.00
35443;BME280;21561;55.654;37.592;2023-12-20T12:50:08;97605.69;;;2.63;100.00
35443;BME280;21561;55.654;37.592;2023-12-20T12:52:36;97609.09;;;2.65;100.00
35443;BME280;21561;55.654;37.592;2023-12-20T12:55:04;97617.66;;;2.61;100.00
35443;BME280;21561;55.654;37.592;2023-12-20T12:57:32;97627.06;;;2.58;100.00
35443;BME280;21561;55.654;37.592;2023-12-20T13:00:00;97639.03;;;2.59;100.00
35443;BME280;21561;55.654;37.592;2023-12-20T13:02:30;97636.47;;;2.60;100.00
35443;BME280;21561;55.654;37.592;2023-12-20T13:04:57;97633.03;;;2.58;100.00
35443;BME280;21561;55.654;37.592;2023-12-20T13:07:24;97627.06;;;2.61;100.00